createdAt,value
2023-03-22T00:01:54.356Z,43.50
2023-03-22T00:04:56.107Z,43.50
2023-03-22T00:07:58.197Z,43.20
2023-03-22T00:10:59.928Z,42.50
2023-03-22T00:17:03.069Z,44.10
2023-03-22T00:20:05.664Z,42.50
2023-03-22T00:23:07.265Z,40.80
2023-03-22T00:29:10.842Z,41.10
2023-03-22T00:35:14.086Z,36.60
2023-03-22T00:38:15.709Z,42.60
2023-03-22T00:44:23.259Z,42.60
2023-03-22T00:47:24.900Z,42.60
2023-03-22T00:50:26.518Z,41.50
2023-03-22T00:56:33.001Z,41.30
2023-03-22T00:59:34.601Z,46.50
2023-03-22T01:02:36.412Z,49.70
2023-03-22T01:05:38.432Z,48.80
2023-03-22T01:08:40.166Z,50.70
2023-03-22T01:11:42.868Z,52.50
2023-03-22T01:14:44.664Z,56.40
2023-03-22T01:17:46.516Z,59.40
2023-03-22T01:20:48.242Z,67.00
2023-03-22T01:23:49.859Z,58.10
2023-03-22T01:29:53.308Z,51.90
2023-03-22T01:32:56.022Z,56.70
2023-03-22T01:35:57.945Z,60.00
2023-03-22T01:38:59.815Z,58.90
2023-03-22T01:42:02.815Z,60.90
2023-03-22T01:45:38.132Z,64.00
2023-03-22T01:48:42.331Z,59.10
2023-03-22T01:51:46.789Z,63.10
2023-03-22T01:54:50.728Z,72.10
2023-03-22T01:57:53.567Z,76.60
2023-03-22T02:00:55.428Z,79.20
2023-03-22T02:04:05.666Z,68.80
2023-03-22T02:07:13.589Z,65.40
2023-03-22T02:10:33.357Z,72.10
2023-03-22T02:14:09.090Z,69.90
2023-03-22T02:17:31.968Z,68.50
2023-03-22T02:20:53.135Z,69.50
2023-03-22T02:24:15.097Z,71.00
2023-03-22T02:27:41.599Z,67.50
2023-03-22T02:31:17.234Z,67.00
2023-03-22T02:34:44.423Z,66.60
2023-03-22T02:38:05.743Z,65.60
2023-03-22T02:41:32.107Z,65.50
2023-03-22T02:44:49.787Z,69.50
2023-03-22T02:48:01.310Z,61.90
2023-03-22T02:51:08.439Z,57.50
2023-03-22T02:54:13.845Z,56.90
2023-03-22T02:57:33.918Z,56.30
2023-03-22T03:00:36.351Z,56.50
2023-03-22T03:03:39.198Z,54.30
2023-03-22T03:06:43.607Z,53.60
2023-03-22T03:09:45.628Z,52.60
2023-03-22T03:12:47.412Z,50.70
2023-03-22T03:15:52.878Z,47.00
2023-03-22T03:19:08.008Z,43.80
2023-03-22T03:22:33.001Z,47.30
2023-03-22T03:26:12.239Z,47.30
2023-03-22T03:29:36.933Z,51.50
2023-03-22T03:32:47.715Z,47.60
2023-03-22T03:35:58.837Z,48.10
2023-03-22T03:39:01.820Z,48.40
2023-03-22T03:42:04.816Z,50.70
2023-03-22T03:45:07.801Z,48.50
2023-03-22T03:48:15.441Z,51.00
2023-03-22T03:51:17.270Z,52.10
2023-03-22T03:57:21.071Z,50.20
2023-03-22T04:00:23.023Z,46.80
2023-03-22T04:03:25.528Z,40.90
2023-03-22T04:06:27.814Z,44.00
2023-03-22T04:09:35.286Z,42.30
2023-03-22T04:12:37.033Z,43.60
2023-03-22T04:15:38.717Z,41.00
2023-03-22T04:21:42.303Z,40.60
2023-03-22T04:24:44.870Z,40.90
2023-03-22T04:27:47.200Z,39.40
2023-03-22T04:30:49.452Z,41.00
2023-03-22T04:33:51.358Z,40.30
2023-03-22T04:36:53.306Z,41.20
2023-03-22T04:39:55.077Z,43.10
2023-03-22T04:46:03.965Z,37.40
2023-03-22T04:49:06.277Z,37.60
2023-03-22T04:52:08.369Z,40.90
2023-03-22T04:55:10.062Z,40.80
2023-03-22T04:58:11.708Z,39.80
2023-03-22T05:01:16.556Z,37.70
2023-03-22T05:04:19.036Z,37.10
2023-03-22T05:07:20.837Z,34.40
2023-03-22T05:13:26.495Z,36.80
2023-03-22T05:16:28.252Z,36.60
2023-03-22T05:19:29.947Z,36.50
2023-03-22T05:25:33.328Z,39.20
2023-03-22T05:28:35.009Z,38.90
2023-03-22T05:37:40.388Z,39.20
2023-03-22T05:40:43.085Z,38.40
2023-03-22T05:43:44.808Z,38.90
2023-03-22T05:46:46.701Z,36.50
2023-03-22T05:49:48.751Z,32.80
2023-03-22T05:52:50.983Z,31.90
2023-03-22T05:55:55.362Z,33.80
2023-03-22T05:58:57.137Z,33.50
2023-03-22T06:01:59.125Z,32.00
2023-03-22T06:05:00.785Z,34.80
2023-03-22T06:08:02.626Z,33.10
2023-03-22T06:11:07.754Z,32.80
2023-03-22T06:14:12.597Z,35.30
2023-03-22T06:17:14.288Z,35.50
2023-03-22T06:23:17.551Z,31.30
2023-03-22T06:26:21.850Z,31.90
2023-03-22T06:29:24.546Z,32.40
2023-03-22T06:32:26.650Z,31.50
2023-03-22T06:35:28.226Z,30.50
2023-03-22T06:44:33.976Z,31.40
2023-03-22T06:47:35.522Z,33.80
2023-03-22T06:50:37.440Z,35.90
2023-03-22T06:53:39.303Z,34.10
2023-03-22T06:56:40.879Z,31.00
2023-03-22T06:59:42.592Z,31.90
2023-03-22T07:02:44.252Z,33.60
2023-03-22T07:05:46.082Z,31.40
2023-03-22T07:08:48.005Z,31.10
2023-03-22T07:11:50.333Z,32.90
2023-03-22T07:17:53.378Z,32.80
2023-03-22T07:23:56.557Z,30.10
2023-03-22T07:26:58.087Z,30.30
2023-03-22T07:29:59.748Z,31.40
2023-03-22T07:33:01.454Z,32.10
2023-03-22T07:36:04.318Z,30.50
2023-03-22T07:39:05.978Z,30.40
2023-03-22T07:42:07.648Z,29.10
2023-03-22T07:45:09.642Z,28.50
2023-03-22T07:48:11.436Z,29.50
2023-03-22T07:51:13.102Z,30.40
2023-03-22T07:54:30.601Z,28.60
2023-03-22T07:57:35.741Z,26.30
2023-03-22T08:00:37.651Z,27.00
2023-03-22T08:03:39.391Z,26.00
2023-03-22T08:06:41.692Z,23.20
2023-03-22T08:09:43.392Z,21.80
2023-03-22T08:12:44.993Z,21.30
2023-03-22T08:15:46.697Z,20.00
2023-03-22T08:18:48.702Z,20.30
2023-03-22T08:21:50.339Z,19.10
2023-03-22T08:24:52.384Z,17.90
2023-03-22T08:27:54.045Z,18.40
2023-03-22T08:30:55.568Z,17.90
2023-03-22T08:33:57.288Z,16.50
2023-03-22T08:36:58.974Z,16.90
2023-03-22T08:40:00.671Z,15.70
2023-03-22T08:43:02.332Z,15.80
2023-03-22T08:46:04.202Z,15.10
2023-03-22T08:49:05.775Z,13.80
2023-03-22T08:52:07.485Z,13.50
2023-03-22T08:55:09.778Z,10.20
2023-03-22T08:58:15.895Z,10.30
2023-03-22T09:01:17.744Z,9.60
2023-03-22T09:04:19.546Z,10.10
2023-03-22T09:07:21.261Z,9.40
2023-03-22T09:10:22.825Z,9.00
2023-03-22T09:13:24.579Z,8.60
2023-03-22T09:16:26.722Z,8.10
2023-03-22T09:19:28.530Z,8.30
2023-03-22T09:22:30.090Z,7.10
2023-03-22T09:25:31.771Z,7.10
2023-03-22T09:28:33.856Z,6.90
2023-03-22T09:31:35.449Z,6.70
2023-03-22T09:34:37.045Z,6.90
2023-03-22T09:37:38.695Z,6.50
2023-03-22T09:40:51.980Z,6.40
2023-03-22T09:44:00.530Z,6.20
2023-03-22T09:47:04.050Z,6.10
2023-03-22T09:50:12.028Z,6.00
2023-03-22T09:53:15.721Z,6.60
2023-03-22T09:56:21.438Z,5.80
2023-03-22T09:59:39.071Z,6.30
2023-03-22T10:02:46.611Z,6.30
2023-03-22T10:06:01.411Z,6.40
2023-03-22T10:09:21.387Z,6.70
2023-03-22T10:12:31.885Z,6.00
2023-03-22T10:15:37.478Z,7.00
2023-03-22T10:18:45.452Z,7.30
2023-03-22T10:21:50.164Z,7.40
2023-03-22T10:24:52.729Z,7.50
2023-03-22T10:27:54.488Z,7.90
2023-03-22T10:30:57.375Z,7.50
2023-03-22T10:34:17.044Z,7.40
2023-03-22T10:37:22.645Z,7.50
2023-03-22T10:40:33.051Z,7.00
2023-03-22T10:43:39.324Z,7.30
2023-03-22T10:46:41.762Z,6.60
2023-03-22T10:49:47.425Z,6.60
2023-03-22T10:53:14.248Z,6.20
2023-03-22T10:56:17.991Z,7.20
2023-03-22T10:59:50.848Z,7.00
2023-03-22T11:02:54.193Z,6.90
2023-03-22T11:06:07.298Z,6.80
2023-03-22T11:09:16.617Z,6.60
2023-03-22T11:12:18.322Z,7.20
2023-03-22T11:15:30.315Z,6.90
2023-03-22T11:18:34.214Z,7.70
2023-03-22T11:21:35.945Z,7.20
2023-03-22T11:24:37.613Z,8.00
2023-03-22T11:28:06.323Z,6.80
2023-03-22T11:31:19.546Z,6.30
2023-03-22T11:34:23.058Z,7.60
2023-03-22T11:37:24.727Z,7.90
2023-03-22T11:40:34.873Z,8.20
2023-03-22T11:43:41.106Z,8.10
2023-03-22T11:46:54.368Z,7.90
2023-03-22T11:49:55.948Z,8.20
2023-03-22T11:52:57.501Z,7.80
2023-03-22T11:55:59.912Z,7.40
2023-03-22T11:59:08.441Z,7.40
2023-03-22T12:02:31.236Z,7.20
2023-03-22T12:05:39.218Z,7.50
2023-03-22T12:08:56.826Z,7.40
2023-03-22T12:12:00.379Z,7.00
2023-03-22T12:15:06.575Z,7.10
2023-03-22T12:18:24.580Z,7.20
2023-03-22T12:21:26.199Z,6.50
2023-03-22T12:24:32.245Z,6.90
2023-03-22T12:27:37.416Z,7.30
2023-03-22T12:30:43.189Z,7.50
2023-03-22T12:33:49.432Z,6.40
2023-03-22T12:36:53.548Z,7.20
2023-03-22T12:40:13.648Z,7.30
2023-03-22T12:43:45.446Z,7.30
2023-03-22T12:46:51.532Z,6.90
2023-03-22T12:50:00.974Z,7.00
2023-03-22T12:53:02.958Z,6.90
2023-03-22T12:56:05.174Z,7.30
2023-03-22T12:59:15.472Z,7.00
2023-03-22T13:02:20.121Z,6.70
2023-03-22T13:05:21.812Z,6.70
2023-03-22T13:08:23.442Z,6.70
2023-03-22T13:11:25.235Z,6.20
2023-03-22T13:14:48.811Z,6.70
2023-03-22T13:17:50.379Z,6.90
2023-03-22T13:21:15.532Z,6.10
2023-03-22T13:24:20.763Z,6.00
2023-03-22T13:27:22.484Z,7.00
2023-03-22T13:30:36.329Z,6.00
2023-03-22T13:33:37.956Z,6.30
2023-03-22T13:36:39.874Z,6.20
2023-03-22T13:39:41.554Z,5.70
2023-03-22T13:42:43.132Z,6.30
2023-03-22T13:46:03.613Z,5.80
2023-03-22T13:49:37.868Z,6.20
2023-03-22T13:52:42.489Z,6.60
2023-03-22T13:55:46.725Z,5.70
2023-03-22T13:58:51.147Z,5.00
2023-03-22T14:02:16.742Z,5.30
2023-03-22T14:05:22.032Z,5.50
2023-03-22T14:08:26.748Z,5.40
2023-03-22T14:11:32.939Z,5.40
2023-03-22T14:14:41.310Z,5.60
2023-03-22T14:18:01.185Z,5.40
2023-03-22T14:21:09.878Z,5.70
